Station Historical Data
Daily Summary for September 29, 2017 Units:  English    Metric   Both
« Previous Day
Next Day »
Daily Weekly Monthly Yearly Custom
  High: Low: Average:
Temperature: 63.4 °F 44.0 °F 52.5 °F
Dew Point: 55.4 °F 40.9 °F 46.2 °F
Humidity: 89% 60% 80%
Wind Speed: 16.0mph 0.0mph 3.4mph
Wind Gust: 27.0mph - -
Wind- - SW
Pressure: 30.08 in 29.90 in -
Precipitation: 0.00 in    
Historical Graphs
 
 
Tabular Data for September 29, 2017
Time Temperature Dew Point Pressure Wind Wind Speed Wind Gust Humidity Rainfall Rate (Hourly)
00:04 51.3 °F 44.0 °F 30.07 in Calm     76% 0.00 in
00:09 51.0 °F 43.7 °F 30.08 in Calm     76% 0.00 in
00:14 50.8 °F 43.8 °F 30.07 in Calm     77% 0.00 in
00:19 50.7 °F 44.1 °F 30.08 in Calm     78% 0.00 in
00:24 50.5 °F 43.9 °F 30.08 in Calm     78% 0.00 in
00:29 50.0 °F 43.7 °F 30.08 in Calm     79% 0.00 in
00:34 49.8 °F 43.9 °F 30.07 in Calm     80% 0.00 in
00:39 49.7 °F 43.8 °F 30.07 in Calm     80% 0.00 in
00:44 49.5 °F 43.6 °F 30.07 in Calm     80% 0.00 in
00:49 49.2 °F 43.3 °F 30.07 in Calm     80% 0.00 in
00:54 48.9 °F 43.0 °F 30.07 in Calm     80% 0.00 in
00:59 48.7 °F 43.1 °F 30.08 in Calm     81% 0.00 in
01:04 48.6 °F 43.4 °F 30.07 in Calm     82% 0.00 in
01:09 48.4 °F 43.2 °F 30.07 in Calm     82% 0.00 in
01:14 48.3 °F 43.1 °F 30.07 in Calm     82% 0.00 in
01:19 48.1 °F 42.9 °F 30.07 in Calm     82% 0.00 in
01:24 47.9 °F 43.0 °F 30.08 in Calm     83% 0.00 in
01:29 47.9 °F 43.0 °F 30.07 in Calm     83% 0.00 in
01:34 47.8 °F 42.9 °F 30.07 in Calm     83% 0.00 in
01:39 47.8 °F 43.2 °F 30.07 in Calm     84% 0.00 in
01:44 47.6 °F 43.0 °F 30.07 in Calm     84% 0.00 in
01:49 47.6 °F 43.0 °F 30.07 in Calm     84% 0.00 in
01:54 47.4 °F 42.8 °F 30.08 in Calm     84% 0.00 in
01:59 47.3 °F 43.0 °F 30.08 in Calm     85% 0.00 in
02:04 47.2 °F 42.9 °F 30.08 in Calm     85% 0.00 in
02:09 47.0 °F 42.7 °F 30.08 in Calm     85% 0.00 in
02:14 47.0 °F 42.7 °F 30.08 in Calm     85% 0.00 in
02:19 46.9 °F 42.9 °F 30.07 in Calm     86% 0.00 in
02:24 46.7 °F 42.7 °F 30.08 in Calm     86% 0.00 in
02:29 46.6 °F 42.6 °F 30.08 in Calm     86% 0.00 in
02:34 46.6 °F 42.6 °F 30.08 in Calm     86% 0.00 in
02:39 46.5 °F 42.5 °F 30.08 in Calm     86% 0.00 in
02:44 46.3 °F 42.3 °F 30.08 in Calm     86% 0.00 in
02:49 46.3 °F 42.3 °F 30.08 in Calm     86% 0.00 in
02:54 46.1 °F 42.4 °F 30.08 in Calm     87% 0.00 in
02:59 46.3 °F 42.9 °F 30.07 in Calm   2.0 mph 88% 0.00 in
03:04 46.5 °F 42.8 °F 30.07 in Calm     87% 0.00 in
03:09 46.4 °F 42.4 °F 30.07 in Calm     86% 0.00 in
03:14 46.1 °F 42.1 °F 30.07 in Calm     86% 0.00 in
03:19 46.1 °F 42.4 °F 30.07 in Calm     87% 0.00 in
03:24 46.1 °F 42.4 °F 30.07 in Calm     87% 0.00 in
03:29 46.1 °F 42.1 °F 30.07 in Calm     86% 0.00 in
03:34 46.0 °F 42.0 °F 30.07 in Calm     86% 0.00 in
03:39 46.0 °F 42.3 °F 30.07 in Calm     87% 0.00 in
03:44 45.9 °F 42.2 °F 30.07 in Calm     87% 0.00 in
03:49 46.0 °F 42.3 °F 30.07 in Calm     87% 0.00 in
03:54 45.8 °F 41.9 °F 30.07 in Calm     86% 0.00 in
03:59 45.8 °F 41.9 °F 30.07 in Calm     86% 0.00 in
04:04 45.5 °F 41.6 °F 30.07 in Calm     86% 0.00 in
04:09 45.5 °F 41.9 °F 30.06 in Calm     87% 0.00 in
04:14 45.4 °F 41.8 °F 30.07 in Calm     87% 0.00 in
04:19 45.2 °F 41.6 °F 30.06 in Calm     87% 0.00 in
04:24 45.1 °F 41.5 °F 30.06 in Calm     87% 0.00 in
04:29 45.1 °F 41.5 °F 30.07 in Calm     87% 0.00 in
04:34 45.1 °F 41.5 °F 30.07 in Calm     87% 0.00 in
04:39 45.0 °F 41.4 °F 30.07 in Calm     87% 0.00 in
04:44 45.1 °F 41.5 °F 30.07 in Calm     87% 0.00 in
04:49 44.9 °F 41.3 °F 30.07 in Calm     87% 0.00 in
04:54 45.1 °F 41.5 °F 30.07 in Calm     87% 0.00 in
04:59 45.1 °F 41.5 °F 30.07 in Calm     87% 0.00 in
05:04 44.9 °F 41.3 °F 30.07 in Calm     87% 0.00 in
05:09 44.9 °F 41.3 °F 30.07 in Calm     87% 0.00 in
05:14 44.7 °F 41.1 °F 30.07 in Calm     87% 0.00 in
05:19 44.6 °F 41.0 °F 30.06 in Calm     87% 0.00 in
05:24 44.6 °F 41.3 °F 30.06 in Calm     88% 0.00 in
05:29 44.8 °F 41.5 °F 30.06 in Calm     88% 0.00 in
05:34 44.7 °F 41.1 °F 30.06 in Calm     87% 0.00 in
05:39 44.6 °F 41.3 °F 30.06 in Calm     88% 0.00 in
05:44 44.5 °F 41.2 °F 30.07 in Calm     88% 0.00 in
05:49 44.2 °F 40.9 °F 30.07 in Calm     88% 0.00 in
05:54 44.2 °F 40.9 °F 30.07 in Calm     88% 0.00 in
05:59 44.4 °F 41.4 °F 30.07 in Calm     89% 0.00 in
06:04 44.4 °F 41.1 °F 30.07 in Calm     88% 0.00 in
06:09 44.4 °F 41.1 °F 30.07 in Calm     88% 0.00 in
06:14 44.2 °F 40.9 °F 30.06 in Calm     88% 0.00 in
06:19 44.0 °F 41.0 °F 30.06 in Calm     89% 0.00 in
06:24 44.4 °F 41.4 °F 30.07 in Calm     89% 0.00 in
06:29 44.6 °F 41.6 °F 30.07 in Calm   1.0 mph 89% 0.00 in
06:34 44.8 °F 41.8 °F 30.07 in Calm     89% 0.00 in
06:39 44.8 °F 41.8 °F 30.07 in Calm     89% 0.00 in
06:44 44.8 °F 41.8 °F 30.07 in Calm     89% 0.00 in
06:49 44.9 °F 41.9 °F 30.07 in Calm     89% 0.00 in
06:54 44.9 °F 41.9 °F 30.07 in Calm     89% 0.00 in
06:59 44.8 °F 41.8 °F 30.07 in Calm     89% 0.00 in
07:04 44.7 °F 41.4 °F 30.07 in Calm     88% 0.00 in
07:09 44.6 °F 41.6 °F 30.07 in Calm     89% 0.00 in
07:14 44.8 °F 41.8 °F 30.07 in Calm     89% 0.00 in
07:19 44.7 °F 41.7 °F 30.07 in Calm     89% 0.00 in
07:24 44.7 °F 41.7 °F 30.07 in Calm     89% 0.00 in
07:29 44.8 °F 41.8 °F 30.08 in Calm     89% 0.00 in
07:34 44.9 °F 41.9 °F 30.08 in Calm     89% 0.00 in
07:39 45.1 °F 42.1 °F 30.08 in Calm     89% 0.00 in
07:44 45.3 °F 42.0 °F 30.08 in Calm     88% 0.00 in
07:49 45.4 °F 42.1 °F 30.08 in Calm     88% 0.00 in
07:54 45.7 °F 42.3 °F 30.08 in Calm     88% 0.00 in
07:59 45.9 °F 42.5 °F 30.08 in Calm     88% 0.00 in
08:04 46.0 °F 42.3 °F 30.07 in Calm     87% 0.00 in
08:09 46.3 °F 42.6 °F 30.07 in Calm     87% 0.00 in
08:14 46.7 °F 43.0 °F 30.08 in Calm   1.0 mph 87% 0.00 in
08:19 47.0 °F 43.0 °F 30.08 in Calm   2.0 mph 86% 0.00 in
08:24 47.5 °F 43.2 °F 30.08 in NNW 1.0 mph 4.0 mph 85% 0.00 in
08:29 48.1 °F 43.5 °F 30.07 in NNW 1.0 mph 4.0 mph 84% 0.00 in
08:34 48.8 °F 43.9 °F 30.08 in NE 1.0 mph 4.0 mph 83% 0.00 in
08:39 49.6 °F 44.0 °F 30.08 in Calm   3.0 mph 81% 0.00 in
08:44 50.3 °F 44.0 °F 30.07 in Calm   3.0 mph 79% 0.00 in
08:49 50.9 °F 44.3 °F 30.07 in SE 1.0 mph 4.0 mph 78% 0.00 in
08:54 51.3 °F 44.3 °F 30.07 in SE 4.0 mph 4.0 mph 77% 0.00 in
08:59 51.7 °F 44.4 °F 30.07 in SSE 3.0 mph 5.0 mph 76% 0.00 in
09:04 52.3 °F 45.0 °F 30.07 in SSE 2.0 mph 4.0 mph 76% 0.00 in
09:09 52.8 °F 45.1 °F 30.07 in Calm   5.0 mph 75% 0.00 in
09:14 53.4 °F 45.3 °F 30.07 in SSE 3.0 mph 7.0 mph 74% 0.00 in
09:19 54.2 °F 45.7 °F 30.07 in SSE 3.0 mph 7.0 mph 73% 0.00 in
09:24 54.6 °F 45.4 °F 30.07 in SSE 3.0 mph 7.0 mph 71% 0.00 in
09:29 55.4 °F 46.5 °F 30.06 in SE 3.0 mph 8.0 mph 72% 0.00 in
09:34 56.0 °F 46.0 °F 30.06 in SE 3.0 mph 8.0 mph 69% 0.00 in
09:39 56.9 °F 46.4 °F 30.05 in ESE 4.0 mph 8.0 mph 68% 0.00 in
09:44 57.3 °F 46.4 °F 30.06 in SSE 4.0 mph 8.0 mph 67% 0.00 in
09:49 57.3 °F 46.0 °F 30.05 in SE 2.0 mph 7.0 mph 66% 0.00 in
09:54 56.8 °F 45.6 °F 30.05 in SE 2.0 mph 8.0 mph 66% 0.00 in
09:59 56.6 °F 46.2 °F 30.05 in SE 4.0 mph 7.0 mph 68% 0.00 in
10:04 56.7 °F 45.9 °F 30.05 in SSE 3.0 mph 9.0 mph 67% 0.00 in
10:09 57.0 °F 46.1 °F 30.05 in SSE 3.0 mph 8.0 mph 67% 0.00 in
10:14 57.7 °F 46.4 °F 30.05 in SSE 3.0 mph 8.0 mph 66% 0.00 in
10:19 58.0 °F 46.7 °F 30.05 in SSE 4.0 mph 9.0 mph 66% 0.00 in
10:24 58.5 °F 46.8 °F 30.04 in SE 2.0 mph 8.0 mph 65% 0.00 in
10:29 58.2 °F 46.5 °F 30.04 in SSW 4.0 mph 9.0 mph 65% 0.00 in
10:34 57.9 °F 46.6 °F 30.05 in South 2.0 mph 6.0 mph 66% 0.00 in
10:39 57.8 °F 46.9 °F 30.04 in South 4.0 mph 8.0 mph 67% 0.00 in
10:44 57.8 °F 47.7 °F 30.04 in South 3.0 mph 8.0 mph 69% 0.00 in
10:49 57.8 °F 48.1 °F 30.04 in South 3.0 mph 7.0 mph 70% 0.00 in
10:54 57.6 °F 48.3 °F 30.04 in South 3.0 mph 7.0 mph 71% 0.00 in
10:59 57.6 °F 49.0 °F 30.04 in South 3.0 mph 8.0 mph 73% 0.00 in
11:04 57.4 °F 48.4 °F 30.04 in Calm   6.0 mph 72% 0.00 in
11:09 57.2 °F 49.0 °F 30.04 in South 1.0 mph 4.0 mph 74% 0.00 in
11:14 57.0 °F 48.8 °F 30.04 in Calm   9.0 mph 74% 0.00 in
11:19 56.8 °F 49.0 °F 30.03 in SSW 6.0 mph 9.0 mph 75% 0.00 in
11:24 56.2 °F 49.1 °F 30.03 in SSW 1.0 mph 6.0 mph 77% 0.01 in
11:29 55.9 °F 49.5 °F 30.03 in SW 2.0 mph 7.0 mph 79% 0.01 in
11:34 55.8 °F 49.7 °F 30.03 in SSW 6.0 mph 10.0 mph 80% 0.02 in
11:39 55.6 °F 49.9 °F 30.03 in South 5.0 mph 8.0 mph 81% 0.02 in
11:44 55.5 °F 50.1 °F 30.02 in SSE 1.0 mph 9.0 mph 82% 0.02 in
11:49 55.4 °F 50.0 °F 30.02 in South 3.0 mph 9.0 mph 82% 0.02 in
11:54 55.3 °F 50.2 °F 30.02 in South 3.0 mph 8.0 mph 83% 0.02 in
11:59 55.2 °F 50.1 °F 30.02 in South 4.0 mph 10.0 mph 83% 0.03 in
12:04 55.1 °F 50.4 °F 30.02 in South 4.0 mph 10.0 mph 84% 0.03 in
12:09 54.9 °F 50.5 °F 30.02 in South 4.0 mph 13.0 mph 85% 0.04 in
12:14 54.8 °F 50.4 °F 30.01 in SSW 5.0 mph 13.0 mph 85% 0.05 in
12:19 54.7 °F 50.6 °F 30.01 in WSW 7.0 mph 9.0 mph 86% 0.06 in
12:24 54.6 °F 50.5 °F 30.01 in South 3.0 mph 11.0 mph 86% 0.05 in
12:29 54.6 °F 50.8 °F 30.00 in South 4.0 mph 8.0 mph 87% 0.06 in
12:34 54.6 °F 50.8 °F 30.00 in SSW 6.0 mph 10.0 mph 87% 0.05 in
12:39 54.9 °F 51.1 °F 30.00 in South 4.0 mph 10.0 mph 87% 0.05 in
12:44 55.0 °F 51.2 °F 29.99 in South 5.0 mph 10.0 mph 87% 0.05 in
12:49 56.0 °F 52.2 °F 30.00 in SSW 5.0 mph 12.0 mph 87% 0.05 in
12:54 56.1 °F 51.7 °F 29.99 in SSW 5.0 mph 12.0 mph 85% 0.05 in
12:59 56.2 °F 51.7 °F 29.99 in SSW 5.0 mph 12.0 mph 85% 0.04 in
13:04 56.4 °F 51.6 °F 29.99 in SSW 4.0 mph 14.0 mph 84% 0.04 in
13:09 56.2 °F 51.4 °F 29.99 in South 5.0 mph 12.0 mph 84% 0.03 in
13:14 56.2 °F 51.1 °F 29.99 in SW 6.0 mph 10.0 mph 83% 0.02 in
13:19 56.5 °F 51.4 °F 29.98 in SW 8.0 mph 11.0 mph 83% 0.01 in
13:24 56.4 °F 51.0 °F 29.98 in West 4.0 mph 12.0 mph 82% 0.02 in
13:29 56.0 °F 50.9 °F 29.98 in SSW 1.0 mph 11.0 mph 83% 0.03 in
13:34 55.3 °F 50.5 °F 29.97 in SSW 5.0 mph 11.0 mph 84% 0.05 in
13:39 55.2 °F 50.8 °F 29.97 in SSW 7.0 mph 9.0 mph 85% 0.06 in
13:44 55.0 °F 50.9 °F 29.97 in SSW 4.0 mph 10.0 mph 86% 0.07 in
13:49 54.9 °F 50.8 °F 29.96 in SSW 4.0 mph 10.0 mph 86% 0.08 in
13:54 55.3 °F 51.5 °F 29.96 in SSW 3.0 mph 8.0 mph 87% 0.08 in
13:59 55.7 °F 51.6 °F 29.96 in SSW 4.0 mph 10.0 mph 86% 0.08 in
14:04 56.1 °F 52.0 °F 29.96 in South 2.0 mph 9.0 mph 86% 0.08 in
14:09 56.0 °F 51.6 °F 29.96 in SSW 4.0 mph 9.0 mph 85% 0.08 in
14:14 56.0 °F 51.6 °F 29.96 in SSW 4.0 mph 8.0 mph 85% 0.09 in
14:19 56.3 °F 51.8 °F 29.95 in SW 4.0 mph 12.0 mph 85% 0.09 in
14:24 56.3 °F 51.8 °F 29.95 in WSW 2.0 mph 9.0 mph 85% 0.08 in
14:29 57.3 °F 53.1 °F 29.95 in Calm   10.0 mph 86% 0.07 in
14:34 59.2 °F 54.7 °F 29.94 in SW 5.0 mph 6.0 mph 85% 0.05 in
14:44 57.5 °F 52.4 °F 29.93 in SSW 3.0 mph 7.0 mph 83% 0.03 in
14:49 57.3 °F 52.5 °F 29.93 in South 3.0 mph 7.0 mph 84% 0.03 in
14:54 57.3 °F 52.5 °F 29.93 in South 3.0 mph 10.0 mph 84% 0.03 in
14:59 57.8 °F 53.3 °F 29.93 in South 4.0 mph 6.0 mph 85% 0.04 in
15:04 58.3 °F 53.5 °F 29.92 in SSW 6.0 mph 13.0 mph 84% 0.04 in
15:09 58.3 °F 52.8 °F 29.92 in SSW 4.0 mph 10.0 mph 82% 0.04 in
15:14 58.4 °F 52.9 °F 29.92 in SSW 5.0 mph 14.0 mph 82% 0.03 in
15:19 58.4 °F 52.9 °F 29.93 in SSW 5.0 mph 14.0 mph 82% 0.03 in
15:24 58.4 °F 52.9 °F 29.92 in SW 5.0 mph 14.0 mph 82% 0.06 in
15:29 60.0 °F 54.8 °F 29.91 in SSW 6.0 mph 14.0 mph 83% 0.05 in
15:34 60.2 °F 54.3 °F 29.90 in South 2.0 mph 14.0 mph 81% 0.05 in
15:39 59.7 °F 53.9 °F 29.90 in SW 5.0 mph 13.0 mph 81% 0.05 in
15:44 58.9 °F 52.7 °F 29.91 in SW 12.0 mph 17.0 mph 80% 0.18 in
15:49 57.5 °F 52.0 °F 29.91 in Calm   16.0 mph 82% 0.35 in
15:54 57.5 °F 52.7 °F 29.92 in West 4.0 mph 8.0 mph 84% 0.35 in
15:59 57.8 °F 53.0 °F 29.92 in Calm   6.0 mph 84% 0.34 in
16:04 58.2 °F 53.7 °F 29.92 in WSW 5.0 mph 10.0 mph 85% 0.34 in
16:09 59.1 °F 54.6 °F 29.92 in WNW 2.0 mph 8.0 mph 85% 0.34 in
16:14 59.5 °F 54.7 °F 29.92 in WSW 3.0 mph 8.0 mph 84% 0.34 in
16:19 59.7 °F 54.9 °F 29.92 in SW 2.0 mph 6.0 mph 84% 0.34 in
16:24 59.9 °F 55.1 °F 29.92 in SW 2.0 mph 6.0 mph 84% 0.31 in
16:29 60.3 °F 55.4 °F 29.92 in Calm   4.0 mph 84% 0.31 in
16:34 61.3 °F 54.4 °F 29.92 in SW 6.0 mph 10.0 mph 78% 0.31 in
16:39 62.6 °F 54.6 °F 29.92 in WNW 3.0 mph 6.0 mph 75% 0.31 in
16:44 63.2 °F 53.3 °F 29.92 in West 3.0 mph 7.0 mph 70% 0.18 in
16:49 63.4 °F 51.8 °F 29.92 in West 4.0 mph 11.0 mph 66% 0.00 in
16:54 63.4 °F 50.1 °F 29.92 in West 4.0 mph 15.0 mph 62% 0.00 in
16:59 63.4 °F 49.3 °F 29.92 in WNW 4.0 mph 13.0 mph 60% 0.00 in
17:04 63.0 °F 49.3 °F 29.92 in WSW 8.0 mph 16.0 mph 61% 0.00 in
17:09 62.5 °F 49.3 °F 29.92 in West 10.0 mph 20.0 mph 62% 0.00 in
17:14 62.4 °F 49.6 °F 29.93 in West 10.0 mph 20.0 mph 63% 0.00 in
17:19 62.3 °F 49.5 °F 29.93 in West 11.0 mph 23.0 mph 63% 0.00 in
17:24 62.7 °F 50.3 °F 29.93 in SW 5.0 mph 12.0 mph 64% 0.00 in
17:34 62.0 °F 48.8 °F 29.93 in West 6.0 mph 18.0 mph 62% 0.00 in
17:39 61.7 °F 49.0 °F 29.93 in West 8.0 mph 18.0 mph 63% 0.00 in
17:44 61.6 °F 48.9 °F 29.93 in West 7.0 mph 18.0 mph 63% 0.00 in
17:49 61.6 °F 48.9 °F 29.93 in West 7.0 mph 18.0 mph 63% 0.00 in
17:54 61.6 °F 49.3 °F 29.94 in West 10.0 mph 14.0 mph 64% 0.00 in
17:59 61.6 °F 49.7 °F 29.94 in West 9.0 mph 13.0 mph 65% 0.00 in
18:04 61.4 °F 49.5 °F 29.94 in West 5.0 mph 14.0 mph 65% 0.00 in
18:09 61.0 °F 48.3 °F 29.94 in WNW 12.0 mph 14.0 mph 63% 0.00 in
18:14 60.6 °F 47.5 °F 29.94 in West 7.0 mph 14.0 mph 62% 0.00 in
18:19 60.2 °F 48.0 °F 29.95 in West 8.0 mph 16.0 mph 64% 0.00 in
18:24 59.8 °F 48.0 °F 29.95 in West 7.0 mph 16.0 mph 65% 0.00 in
18:29 59.3 °F 47.9 °F 29.95 in WNW 6.0 mph 12.0 mph 66% 0.00 in
18:34 58.8 °F 48.3 °F 29.95 in West 5.0 mph 13.0 mph 68% 0.00 in
18:39 58.7 °F 48.6 °F 29.95 in NNW 10.0 mph 19.0 mph 69% 0.00 in
18:44 58.5 °F 48.4 °F 29.96 in West 8.0 mph 19.0 mph 69% 0.00 in
18:49 58.1 °F 47.6 °F 29.96 in West 8.0 mph 13.0 mph 68% 0.00 in
18:54 57.9 °F 47.4 °F 29.96 in West 8.0 mph 17.0 mph 68% 0.00 in
18:59 57.5 °F 47.0 °F 29.96 in West 6.0 mph 12.0 mph 68% 0.00 in
19:04 57.3 °F 46.8 °F 29.96 in West 6.0 mph 10.0 mph 68% 0.00 in
19:09 57.0 °F 46.5 °F 29.96 in West 10.0 mph 12.0 mph 68% 0.00 in
19:14 57.1 °F 46.2 °F 29.97 in West 12.0 mph 17.0 mph 67% 0.00 in
19:19 57.0 °F 45.7 °F 29.97 in West 9.0 mph 17.0 mph 66% 0.00 in
19:24 56.6 °F 45.4 °F 29.97 in WSW 10.0 mph 21.0 mph 66% 0.00 in
19:29 56.4 °F 44.8 °F 29.97 in WSW 8.0 mph 16.0 mph 65% 0.00 in
19:34 56.2 °F 44.6 °F 29.97 in West 11.0 mph 20.0 mph 65% 0.00 in
19:39 56.0 °F 44.0 °F 29.98 in WSW 13.0 mph 18.0 mph 64% 0.00 in
19:44 55.9 °F 43.9 °F 29.98 in WSW 14.0 mph 23.0 mph 64% 0.00 in
19:49 55.7 °F 43.7 °F 29.97 in West 9.0 mph 23.0 mph 64% 0.00 in
19:54 55.6 °F 44.0 °F 29.98 in West 8.0 mph 18.0 mph 65% 0.00 in
19:59 55.5 °F 43.9 °F 29.98 in West 7.0 mph 18.0 mph 65% 0.00 in
20:04 55.4 °F 43.8 °F 29.98 in WNW 7.0 mph 15.0 mph 65% 0.00 in
20:09 55.2 °F 43.6 °F 29.98 in West 12.0 mph 16.0 mph 65% 0.00 in
20:14 55.1 °F 43.9 °F 29.99 in WSW 4.0 mph 13.0 mph 66% 0.00 in
20:19 55.1 °F 43.9 °F 29.98 in West 7.0 mph 16.0 mph 66% 0.00 in
20:24 54.9 °F 43.7 °F 29.99 in West 8.0 mph 16.0 mph 66% 0.00 in
20:29 54.8 °F 43.7 °F 29.98 in West 7.0 mph 15.0 mph 66% 0.00 in
20:34 54.6 °F 43.5 °F 29.98 in West 10.0 mph 14.0 mph 66% 0.00 in
20:39 54.4 °F 42.9 °F 29.99 in West 13.0 mph 19.0 mph 65% 0.00 in
20:44 54.2 °F 43.1 °F 29.99 in West 13.0 mph 18.0 mph 66% 0.00 in
20:49 53.8 °F 43.1 °F 29.99 in West 7.0 mph 18.0 mph 67% 0.00 in
20:54 53.6 °F 43.3 °F 29.99 in West 7.0 mph 17.0 mph 68% 0.00 in
20:59 53.5 °F 43.2 °F 29.99 in West 7.0 mph 15.0 mph 68% 0.00 in
21:04 53.3 °F 43.0 °F 29.99 in West 8.0 mph 17.0 mph 68% 0.00 in
21:09 53.1 °F 43.2 °F 29.99 in West 7.0 mph 17.0 mph 69% 0.00 in
21:14 52.8 °F 43.3 °F 29.99 in WSW 7.0 mph 14.0 mph 70% 0.00 in
21:19 52.7 °F 43.2 °F 29.99 in West 9.0 mph 27.0 mph 70% 0.00 in
21:24 52.6 °F 43.5 °F 29.99 in West 3.0 mph 18.0 mph 71% 0.00 in
21:29 52.4 °F 43.3 °F 29.99 in West 16.0 mph 17.0 mph 71% 0.00 in
21:34 52.3 °F 43.2 °F 29.99 in West 7.0 mph 16.0 mph 71% 0.00 in
21:39 52.3 °F 43.5 °F 29.99 in WNW 5.0 mph 17.0 mph 72% 0.00 in
21:44 52.1 °F 43.7 °F 29.99 in West 5.0 mph 16.0 mph 73% 0.00 in
21:49 51.6 °F 43.9 °F 30.00 in West 7.0 mph 19.0 mph 75% 0.00 in
21:54 51.0 °F 44.0 °F 30.00 in West 7.0 mph 21.0 mph 77% 0.00 in
21:59 50.5 °F 44.6 °F 30.00 in West 6.0 mph 17.0 mph 80% 0.00 in
22:04 50.1 °F 44.8 °F 30.00 in West 6.0 mph 17.0 mph 82% 0.01 in
22:09 49.8 °F 44.8 °F 30.00 in WNW 6.0 mph 11.0 mph 83% 0.01 in
22:14 49.6 °F 45.3 °F 30.00 in WSW 6.0 mph 11.0 mph 85% 0.02 in
22:19 49.6 °F 45.3 °F 30.00 in WSW 6.0 mph 11.0 mph 85% 0.04 in
22:24 49.7 °F 45.7 °F 30.00 in West 5.0 mph 11.0 mph 86% 0.05 in
22:29 49.9 °F 46.2 °F 30.00 in West 6.0 mph 13.0 mph 87% 0.07 in
22:34 50.1 °F 46.7 °F 30.01 in West 5.0 mph 13.0 mph 88% 0.07 in
22:39 50.3 °F 46.9 °F 30.01 in West 3.0 mph 7.0 mph 88% 0.07 in
22:44 50.8 °F 47.7 °F 30.01 in West 5.0 mph 16.0 mph 89% 0.07 in
22:49 51.4 °F 48.3 °F 30.01 in NNW 3.0 mph 13.0 mph 89% 0.07 in
22:54 51.7 °F 48.6 °F 30.01 in WNW 2.0 mph 12.0 mph 89% 0.07 in
22:59 51.9 °F 48.8 °F 30.02 in NNE 11.0 mph 11.0 mph 89% 0.07 in
23:04 52.0 °F 48.9 °F 30.02 in WNW 3.0 mph 13.0 mph 89% 0.06 in
23:09 52.1 °F 49.0 °F 30.02 in West 10.0 mph 13.0 mph 89% 0.06 in
23:19 52.0 °F 48.9 °F 30.03 in NNW 5.0 mph 13.0 mph 89% 0.04 in
23:24 51.9 °F 48.8 °F 30.03 in NNW 4.0 mph 13.0 mph 89% 0.02 in
23:29 51.8 °F 48.7 °F 30.04 in NNW 5.0 mph 15.0 mph 89% 0.01 in
23:34 51.7 °F 48.6 °F 30.05 in NNW 6.0 mph 15.0 mph 89% 0.01 in
23:39 51.5 °F 48.4 °F 30.05 in NNE 5.0 mph 16.0 mph 89% 0.01 in
23:44 51.5 °F 48.4 °F 30.05 in NNW 5.0 mph 16.0 mph 89% 0.01 in
23:49 51.5 °F 48.4 °F 30.06 in NNW 5.0 mph 14.0 mph 89% 0.01 in
23:54 51.4 °F 48.3 °F 30.07 in NNW 5.0 mph 14.0 mph 89% 0.01 in
23:59 51.2 °F 48.1 °F 30.07 in NW 3.0 mph 13.0 mph 89% 0.01 in
Buffalo, New York, USA
Compliments of Weather Underground - 2.5 mb